sensor_id;sensor_type;location;lat;lon;timestamp;P1;durP1;ratioP1;P2;durP2;ratioP2
7829;SDS011;3960;51.86894000;5.39848000;2023-04-15T00:00:14;11.93;;;5.15;;
7829;SDS011;3960;51.86894000;5.39848000;2023-04-15T00:02:41;10.15;;;4.82;;
7829;SDS011;3960;51.86894000;5.39848000;2023-04-15T00:05:08;8.40;;;5.22;;
7829;SDS011;3960;51.86894000;5.39848000;2023-04-15T00:07:34;9.90;;;4.88;;
7829;SDS011;3960;51.86894000;5.39848000;2023-04-15T00:10:00;10.48;;;5.00;;
7829;SDS011;3960;51.86894000;5.39848000;2023-04-15T00:12:28;9.57;;;5.55;;
7829;SDS011;3960;51.86894000;5.39848000;2023-04-15T00:14:53;9.90;;;5.43;;
7829;SDS011;3960;51.86894000;5.39848000;2023-04-15T00:17:21;9.70;;;5.20;;
7829;SDS011;3960;51.86894000;5.39848000;2023-04-15T00:19:46;12.18;;;5.90;;
7829;SDS011;3960;51.86894000;5.39848000;2023-04-15T00:22:14;15.88;;;5.68;;
7829;SDS011;3960;51.86894000;5.39848000;2023-04-15T00:24:40;9.48;;;5.30;;
7829;SDS011;3960;51.86894000;5.39848000;2023-04-15T00:27:05;8.90;;;5.10;;
7829;SDS011;3960;51.86894000;5.39848000;2023-04-15T00:29:31;8.77;;;4.90;;
7829;SDS011;3960;51.86894000;5.39848000;2023-04-15T00:31:56;11.38;;;5.30;;
7829;SDS011;3960;51.86894000;5.39848000;2023-04-15T00:34:22;7.50;;;4.95;;
7829;SDS011;3960;51.86894000;5.39848000;2023-04-15T00:36:48;13.32;;;5.95;;
7829;SDS011;3960;51.86894000;5.39848000;2023-04-15T00:39:15;10.80;;;5.72;;
7829;SDS011;3960;51.86894000;5.39848000;2023-04-15T00:41:41;10.40;;;5.53;;
7829;SDS011;3960;51.86894000;5.39848000;2023-04-15T00:44:07;9.23;;;5.50;;
7829;SDS011;3960;51.86894000;5.39848000;2023-04-15T00:46:36;11.68;;;6.20;;
7829;SDS011;3960;51.86894000;5.39848000;2023-04-15T00:49:03;9.13;;;5.03;;
7829;SDS011;3960;51.86894000;5.39848000;2023-04-15T00:51:30;13.20;;;5.53;;
7829;SDS011;3960;51.86894000;5.39848000;2023-04-15T00:53:57;9.98;;;5.60;;
7829;SDS011;3960;51.86894000;5.39848000;2023-04-15T00:56:43;10.35;;;4.97;;
7829;SDS011;3960;51.86894000;5.39848000;2023-04-15T00:59:08;11.80;;;5.65;;
7829;SDS011;3960;51.86894000;5.39848000;2023-04-15T01:01:35;9.45;;;5.82;;
7829;SDS011;3960;51.86894000;5.39848000;2023-04-15T01:04:01;10.75;;;5.43;;
7829;SDS011;3960;51.86894000;5.39848000;2023-04-15T01:06:27;9.95;;;5.57;;
7829;SDS011;3960;51.86894000;5.39848000;2023-04-15T01:08:53;9.45;;;5.15;;
7829;SDS011;3960;51.86894000;5.39848000;2023-04-15T01:11:19;7.68;;;5.15;;
7829;SDS011;3960;51.86894000;5.39848000;2023-04-15T01:13:48;13.60;;;5.53;;
7829;SDS011;3960;51.86894000;5.39848000;2023-04-15T01:16:15;9.50;;;5.53;;
7829;SDS011;3960;51.86894000;5.39848000;2023-04-15T01:18:41;9.43;;;5.93;;
7829;SDS011;3960;51.86894000;5.39848000;2023-04-15T01:21:07;9.13;;;6.55;;
7829;SDS011;3960;51.86894000;5.39848000;2023-04-15T01:23:34;9.82;;;5.88;;
7829;SDS011;3960;51.86894000;5.39848000;2023-04-15T01:26:01;11.52;;;6.03;;
7829;SDS011;3960;51.86894000;5.39848000;2023-04-15T01:28:27;10.77;;;6.00;;
7829;SDS011;3960;51.86894000;5.39848000;2023-04-15T01:31:09;12.73;;;6.13;;
7829;SDS011;3960;51.86894000;5.39848000;2023-04-15T01:33:41;9.85;;;5.25;;
7829;SDS011;3960;51.86894000;5.39848000;2023-04-15T01:36:07;9.82;;;5.82;;
7829;SDS011;3960;51.86894000;5.39848000;2023-04-15T01:38:34;7.93;;;5.68;;
7829;SDS011;3960;51.86894000;5.39848000;2023-04-15T01:41:00;8.52;;;5.70;;
7829;SDS011;3960;51.86894000;5.39848000;2023-04-15T01:43:26;13.70;;;5.70;;
7829;SDS011;3960;51.86894000;5.39848000;2023-04-15T01:45:57;9.65;;;4.70;;
7829;SDS011;3960;51.86894000;5.39848000;2023-04-15T01:48:23;10.75;;;5.85;;
7829;SDS011;3960;51.86894000;5.39848000;2023-04-15T01:50:51;10.65;;;5.80;;
7829;SDS011;3960;51.86894000;5.39848000;2023-04-15T01:53:21;9.40;;;5.68;;
7829;SDS011;3960;51.86894000;5.39848000;2023-04-15T01:55:47;8.52;;;5.50;;
7829;SDS011;3960;51.86894000;5.39848000;2023-04-15T01:58:13;10.43;;;5.70;;
7829;SDS011;3960;51.86894000;5.39848000;2023-04-15T02:00:39;8.35;;;5.30;;
7829;SDS011;3960;51.86894000;5.39848000;2023-04-15T02:03:04;9.75;;;5.70;;
7829;SDS011;3960;51.86894000;5.39848000;2023-04-15T02:05:30;9.50;;;5.40;;
7829;SDS011;3960;51.86894000;5.39848000;2023-04-15T02:07:56;8.90;;;5.47;;
7829;SDS011;3960;51.86894000;5.39848000;2023-04-15T02:10:21;8.40;;;5.50;;
7829;SDS011;3960;51.86894000;5.39848000;2023-04-15T02:12:47;9.82;;;5.93;;
7829;SDS011;3960;51.86894000;5.39848000;2023-04-15T02:15:12;8.18;;;5.82;;
7829;SDS011;3960;51.86894000;5.39848000;2023-04-15T02:17:38;8.88;;;5.80;;
7829;SDS011;3960;51.86894000;5.39848000;2023-04-15T02:20:07;10.93;;;6.05;;
7829;SDS011;3960;51.86894000;5.39848000;2023-04-15T02:22:33;11.60;;;5.97;;
7829;SDS011;3960;51.86894000;5.39848000;2023-04-15T02:24:58;7.47;;;5.75;;
7829;SDS011;3960;51.86894000;5.39848000;2023-04-15T02:27:24;9.00;;;5.63;;
7829;SDS011;3960;51.86894000;5.39848000;2023-04-15T02:29:49;8.25;;;5.30;;
7829;SDS011;3960;51.86894000;5.39848000;2023-04-15T02:32:17;8.23;;;5.47;;
7829;SDS011;3960;51.86894000;5.39848000;2023-04-15T02:34:44;10.77;;;6.22;;
7829;SDS011;3960;51.86894000;5.39848000;2023-04-15T02:37:09;8.80;;;5.95;;
7829;SDS011;3960;51.86894000;5.39848000;2023-04-15T02:39:38;10.18;;;6.82;;
7829;SDS011;3960;51.86894000;5.39848000;2023-04-15T02:42:03;12.13;;;6.00;;
7829;SDS011;3960;51.86894000;5.39848000;2023-04-15T02:44:30;9.02;;;5.78;;
7829;SDS011;3960;51.86894000;5.39848000;2023-04-15T02:46:56;7.38;;;5.57;;
7829;SDS011;3960;51.86894000;5.39848000;2023-04-15T02:49:23;10.38;;;6.20;;
7829;SDS011;3960;51.86894000;5.39848000;2023-04-15T02:51:51;9.35;;;6.22;;
7829;SDS011;3960;51.86894000;5.39848000;2023-04-15T02:54:19;9.07;;;5.85;;
7829;SDS011;3960;51.86894000;5.39848000;2023-04-15T02:56:47;11.65;;;6.13;;
7829;SDS011;3960;51.86894000;5.39848000;2023-04-15T02:59:12;14.00;;;6.32;;
7829;SDS011;3960;51.86894000;5.39848000;2023-04-15T03:01:38;9.10;;;5.97;;
7829;SDS011;3960;51.86894000;5.39848000;2023-04-15T03:04:03;8.80;;;5.55;;
7829;SDS011;3960;51.86894000;5.39848000;2023-04-15T03:06:29;7.47;;;5.68;;
7829;SDS011;3960;51.86894000;5.39848000;2023-04-15T03:08:54;9.30;;;5.85;;
7829;SDS011;3960;51.86894000;5.39848000;2023-04-15T03:11:21;9.77;;;5.63;;
7829;SDS011;3960;51.86894000;5.39848000;2023-04-15T03:13:46;11.82;;;6.50;;
7829;SDS011;3960;51.86894000;5.39848000;2023-04-15T03:16:12;9.95;;;6.18;;
7829;SDS011;3960;51.86894000;5.39848000;2023-04-15T03:18:40;10.18;;;6.18;;
7829;SDS011;3960;51.86894000;5.39848000;2023-04-15T03:21:05;11.05;;;6.22;;
7829;SDS011;3960;51.86894000;5.39848000;2023-04-15T03:23:31;9.98;;;6.10;;
7829;SDS011;3960;51.86894000;5.39848000;2023-04-15T03:25:56;11.32;;;5.60;;
7829;SDS011;3960;51.86894000;5.39848000;2023-04-15T03:28:23;9.15;;;5.55;;
7829;SDS011;3960;51.86894000;5.39848000;2023-04-15T03:30:49;11.68;;;5.97;;
7829;SDS011;3960;51.86894000;5.39848000;2023-04-15T03:33:16;10.88;;;6.03;;
7829;SDS011;3960;51.86894000;5.39848000;2023-04-15T03:35:42;10.32;;;5.65;;
7829;SDS011;3960;51.86894000;5.39848000;2023-04-15T03:38:07;7.72;;;6.00;;
7829;SDS011;3960;51.86894000;5.39848000;2023-04-15T03:40:36;7.43;;;5.93;;
7829;SDS011;3960;51.86894000;5.39848000;2023-04-15T03:43:05;11.75;;;6.18;;
7829;SDS011;3960;51.86894000;5.39848000;2023-04-15T03:45:31;9.27;;;6.13;;
7829;SDS011;3960;51.86894000;5.39848000;2023-04-15T03:47:56;8.20;;;5.68;;
7829;SDS011;3960;51.86894000;5.39848000;2023-04-15T03:50:22;13.35;;;7.82;;
7829;SDS011;3960;51.86894000;5.39848000;2023-04-15T03:52:47;10.48;;;5.97;;
7829;SDS011;3960;51.86894000;5.39848000;2023-04-15T03:55:13;8.63;;;6.00;;
7829;SDS011;3960;51.86894000;5.39848000;2023-04-15T03:57:39;8.05;;;5.55;;
7829;SDS011;3960;51.86894000;5.39848000;2023-04-15T04:00:05;11.30;;;6.53;;
7829;SDS011;3960;51.86894000;5.39848000;2023-04-15T04:02:30;7.45;;;6.32;;
7829;SDS011;3960;51.86894000;5.39848000;2023-04-15T04:04:56;8.32;;;5.80;;
7829;SDS011;3960;51.86894000;5.39848000;2023-04-15T04:07:22;10.90;;;6.07;;
7829;SDS011;3960;51.86894000;5.39848000;2023-04-15T04:09:47;9.77;;;6.07;;
7829;SDS011;3960;51.86894000;5.39848000;2023-04-15T04:12:13;8.70;;;5.40;;
7829;SDS011;3960;51.86894000;5.39848000;2023-04-15T04:14:38;11.38;;;5.88;;
7829;SDS011;3960;51.86894000;5.39848000;2023-04-15T04:17:04;11.60;;;6.50;;
7829;SDS011;3960;51.86894000;5.39848000;2023-04-15T04:19:29;10.50;;;6.18;;
7829;SDS011;3960;51.86894000;5.39848000;2023-04-15T04:21:55;10.88;;;5.97;;
7829;SDS011;3960;51.86894000;5.39848000;2023-04-15T04:24:20;8.95;;;5.85;;
7829;SDS011;3960;51.86894000;5.39848000;2023-04-15T04:26:45;9.55;;;6.18;;
7829;SDS011;3960;51.86894000;5.39848000;2023-04-15T04:29:13;10.68;;;6.43;;
7829;SDS011;3960;51.86894000;5.39848000;2023-04-15T04:31:38;11.15;;;6.28;;
7829;SDS011;3960;51.86894000;5.39848000;2023-04-15T04:34:04;10.20;;;6.35;;
7829;SDS011;3960;51.86894000;5.39848000;2023-04-15T04:36:29;12.52;;;6.00;;
7829;SDS011;3960;51.86894000;5.39848000;2023-04-15T04:38:54;7.90;;;6.15;;
7829;SDS011;3960;51.86894000;5.39848000;2023-04-15T04:41:20;10.45;;;6.60;;
7829;SDS011;3960;51.86894000;5.39848000;2023-04-15T04:43:45;8.55;;;6.47;;
7829;SDS011;3960;51.86894000;5.39848000;2023-04-15T04:46:11;11.07;;;6.47;;
7829;SDS011;3960;51.86894000;5.39848000;2023-04-15T04:48:39;10.75;;;6.50;;
7829;SDS011;3960;51.86894000;5.39848000;2023-04-15T04:51:05;9.02;;;6.57;;
7829;SDS011;3960;51.86894000;5.39848000;2023-04-15T04:53:31;8.02;;;5.97;;
7829;SDS011;3960;51.86894000;5.39848000;2023-04-15T04:55:59;10.73;;;6.63;;
7829;SDS011;3960;51.86894000;5.39848000;2023-04-15T04:58:25;9.93;;;6.75;;
7829;SDS011;3960;51.86894000;5.39848000;2023-04-15T05:00:51;10.85;;;6.50;;
7829;SDS011;3960;51.86894000;5.39848000;2023-04-15T05:03:19;10.75;;;7.05;;
7829;SDS011;3960;51.86894000;5.39848000;2023-04-15T05:05:44;11.15;;;6.15;;
7829;SDS011;3960;51.86894000;5.39848000;2023-04-15T05:08:10;12.82;;;7.18;;
7829;SDS011;3960;51.86894000;5.39848000;2023-04-15T05:10:35;9.52;;;6.40;;
7829;SDS011;3960;51.86894000;5.39848000;2023-04-15T05:13:01;8.45;;;7.15;;
7829;SDS011;3960;51.86894000;5.39848000;2023-04-15T05:15:26;9.82;;;6.85;;
7829;SDS011;3960;51.86894000;5.39848000;2023-04-15T05:17:52;10.23;;;6.70;;
7829;SDS011;3960;51.86894000;5.39848000;2023-04-15T05:20:17;14.50;;;6.53;;
7829;SDS011;3960;51.86894000;5.39848000;2023-04-15T05:22:43;9.25;;;6.82;;
7829;SDS011;3960;51.86894000;5.39848000;2023-04-15T05:25:10;13.15;;;7.53;;
7829;SDS011;3960;51.86894000;5.39848000;2023-04-15T05:27:39;10.82;;;7.55;;
7829;SDS011;3960;51.86894000;5.39848000;2023-04-15T05:30:07;10.13;;;6.90;;
7829;SDS011;3960;51.86894000;5.39848000;2023-04-15T05:32:33;13.05;;;7.25;;
7829;SDS011;3960;51.86894000;5.39848000;2023-04-15T05:34:58;12.25;;;7.20;;
7829;SDS011;3960;51.86894000;5.39848000;2023-04-15T05:37:27;9.20;;;6.78;;
7829;SDS011;3960;51.86894000;5.39848000;2023-04-15T05:39:52;11.65;;;6.95;;
7829;SDS011;3960;51.86894000;5.39848000;2023-04-15T05:42:17;11.45;;;8.00;;
7829;SDS011;3960;51.86894000;5.39848000;2023-04-15T05:44:45;11.35;;;7.15;;
7829;SDS011;3960;51.86894000;5.39848000;2023-04-15T05:47:13;12.68;;;7.35;;
7829;SDS011;3960;51.86894000;5.39848000;2023-04-15T05:49:41;9.85;;;7.45;;
7829;SDS011;3960;51.86894000;5.39848000;2023-04-15T05:52:07;9.18;;;6.47;;
7829;SDS011;3960;51.86894000;5.39848000;2023-04-15T05:54:32;14.50;;;6.93;;
7829;SDS011;3960;51.86894000;5.39848000;2023-04-15T05:56:57;11.20;;;6.50;;
7829;SDS011;3960;51.86894000;5.39848000;2023-04-15T05:59:23;11.15;;;7.40;;
7829;SDS011;3960;51.86894000;5.39848000;2023-04-15T06:01:48;11.43;;;7.65;;
7829;SDS011;3960;51.86894000;5.39848000;2023-04-15T06:04:16;9.60;;;7.15;;
7829;SDS011;3960;51.86894000;5.39848000;2023-04-15T06:06:41;11.60;;;7.47;;
7829;SDS011;3960;51.86894000;5.39848000;2023-04-15T06:09:07;10.45;;;7.60;;
7829;SDS011;3960;51.86894000;5.39848000;2023-04-15T06:11:32;10.45;;;7.93;;
7829;SDS011;3960;51.86894000;5.39848000;2023-04-15T06:14:00;11.65;;;8.13;;
7829;SDS011;3960;51.86894000;5.39848000;2023-04-15T06:16:26;12.48;;;8.02;;
7829;SDS011;3960;51.86894000;5.39848000;2023-04-15T06:18:54;11.70;;;7.50;;
7829;SDS011;3960;51.86894000;5.39848000;2023-04-15T06:21:19;14.20;;;7.65;;
7829;SDS011;3960;51.86894000;5.39848000;2023-04-15T06:23:56;11.73;;;7.90;;
7829;SDS011;3960;51.86894000;5.39848000;2023-04-15T06:26:23;11.68;;;8.15;;
7829;SDS011;3960;51.86894000;5.39848000;2023-04-15T06:28:51;13.90;;;8.18;;
7829;SDS011;3960;51.86894000;5.39848000;2023-04-15T06:31:28;13.52;;;7.75;;
7829;SDS011;3960;51.86894000;5.39848000;2023-04-15T06:33:59;11.27;;;8.07;;
7829;SDS011;3960;51.86894000;5.39848000;2023-04-15T06:36:30;10.93;;;7.70;;
7829;SDS011;3960;51.86894000;5.39848000;2023-04-15T06:39:00;11.05;;;8.00;;
7829;SDS011;3960;51.86894000;5.39848000;2023-04-15T06:41:29;9.85;;;7.15;;
7829;SDS011;3960;51.86894000;5.39848000;2023-04-15T06:44:18;10.20;;;7.68;;
7829;SDS011;3960;51.86894000;5.39848000;2023-04-15T06:47:06;11.00;;;7.55;;
7829;SDS011;3960;51.86894000;5.39848000;2023-04-15T06:49:31;10.35;;;7.07;;
7829;SDS011;3960;51.86894000;5.39848000;2023-04-15T06:51:57;12.02;;;6.53;;
7829;SDS011;3960;51.86894000;5.39848000;2023-04-15T06:54:33;8.63;;;5.70;;
7829;SDS011;3960;51.86894000;5.39848000;2023-04-15T06:57:05;10.45;;;6.68;;
7829;SDS011;3960;51.86894000;5.39848000;2023-04-15T06:59:31;9.57;;;6.60;;
7829;SDS011;3960;51.86894000;5.39848000;2023-04-15T07:01:59;11.35;;;7.03;;
7829;SDS011;3960;51.86894000;5.39848000;2023-04-15T07:04:32;8.90;;;6.32;;
7829;SDS011;3960;51.86894000;5.39848000;2023-04-15T07:07:13;13.23;;;6.55;;
7829;SDS011;3960;51.86894000;5.39848000;2023-04-15T07:09:44;9.90;;;6.82;;
7829;SDS011;3960;51.86894000;5.39848000;2023-04-15T07:12:47;13.63;;;6.55;;
7829;SDS011;3960;51.86894000;5.39848000;2023-04-15T07:15:19;10.43;;;6.32;;
7829;SDS011;3960;51.86894000;5.39848000;2023-04-15T07:17:58;9.07;;;5.97;;
7829;SDS011;3960;51.86894000;5.39848000;2023-04-15T07:20:32;10.25;;;5.95;;
7829;SDS011;3960;51.86894000;5.39848000;2023-04-15T07:22:58;10.60;;;6.45;;
7829;SDS011;3960;51.86894000;5.39848000;2023-04-15T07:25:23;7.85;;;6.28;;
7829;SDS011;3960;51.86894000;5.39848000;2023-04-15T07:27:58;8.57;;;6.43;;
7829;SDS011;3960;51.86894000;5.39848000;2023-04-15T07:30:27;9.80;;;6.25;;
7829;SDS011;3960;51.86894000;5.39848000;2023-04-15T07:32:53;10.43;;;6.47;;
7829;SDS011;3960;51.86894000;5.39848000;2023-04-15T07:35:19;8.23;;;5.97;;
7829;SDS011;3960;51.86894000;5.39848000;2023-04-15T07:37:48;7.60;;;5.20;;
7829;SDS011;3960;51.86894000;5.39848000;2023-04-15T07:40:13;8.15;;;5.28;;
7829;SDS011;3960;51.86894000;5.39848000;2023-04-15T07:42:40;8.70;;;5.43;;
7829;SDS011;3960;51.86894000;5.39848000;2023-04-15T07:45:06;6.80;;;5.03;;
7829;SDS011;3960;51.86894000;5.39848000;2023-04-15T07:47:32;7.68;;;5.18;;
7829;SDS011;3960;51.86894000;5.39848000;2023-04-15T07:50:01;7.30;;;4.72;;
7829;SDS011;3960;51.86894000;5.39848000;2023-04-15T07:52:32;8.82;;;5.10;;
7829;SDS011;3960;51.86894000;5.39848000;2023-04-15T08:02:49;7.05;;;4.63;;
7829;SDS011;3960;51.86894000;5.39848000;2023-04-15T08:06:25;6.28;;;3.97;;
7829;SDS011;3960;51.86894000;5.39848000;2023-04-15T08:09:47;8.65;;;4.50;;
7829;SDS011;3960;51.86894000;5.39848000;2023-04-15T08:30:59;5.93;;;3.45;;
7829;SDS011;3960;51.86894000;5.39848000;2023-04-15T08:33:25;6.00;;;3.80;;
7829;SDS011;3960;51.86894000;5.39848000;2023-04-15T08:35:50;5.13;;;3.63;;
7829;SDS011;3960;51.86894000;5.39848000;2023-04-15T08:38:16;7.43;;;3.63;;
7829;SDS011;3960;51.86894000;5.39848000;2023-04-15T08:40:42;5.30;;;3.83;;
7829;SDS011;3960;51.86894000;5.39848000;2023-04-15T08:43:10;7.25;;;4.00;;
7829;SDS011;3960;51.86894000;5.39848000;2023-04-15T08:45:39;5.70;;;3.65;;
7829;SDS011;3960;51.86894000;5.39848000;2023-04-15T08:48:08;6.20;;;3.92;;
7829;SDS011;3960;51.86894000;5.39848000;2023-04-15T08:50:43;4.15;;;3.33;;
7829;SDS011;3960;51.86894000;5.39848000;2023-04-15T08:53:09;7.22;;;3.58;;
7829;SDS011;3960;51.86894000;5.39848000;2023-04-15T08:55:35;9.07;;;3.58;;
7829;SDS011;3960;51.86894000;5.39848000;2023-04-15T08:58:08;8.80;;;3.17;;
7829;SDS011;3960;51.86894000;5.39848000;2023-04-15T09:00:35;8.20;;;3.63;;
7829;SDS011;3960;51.86894000;5.39848000;2023-04-15T09:03:02;8.75;;;3.70;;
7829;SDS011;3960;51.86894000;5.39848000;2023-04-15T09:05:30;5.75;;;3.53;;
7829;SDS011;3960;51.86894000;5.39848000;2023-04-15T09:08:00;5.53;;;3.33;;
7829;SDS011;3960;51.86894000;5.39848000;2023-04-15T09:10:26;4.72;;;2.88;;
7829;SDS011;3960;51.86894000;5.39848000;2023-04-15T09:12:52;5.13;;;2.83;;
7829;SDS011;3960;51.86894000;5.39848000;2023-04-15T09:15:17;5.03;;;3.47;;
7829;SDS011;3960;51.86894000;5.39848000;2023-04-15T09:17:43;4.40;;;3.00;;
7829;SDS011;3960;51.86894000;5.39848000;2023-04-15T09:20:10;5.57;;;3.17;;
7829;SDS011;3960;51.86894000;5.39848000;2023-04-15T09:22:40;6.10;;;2.95;;
7829;SDS011;3960;51.86894000;5.39848000;2023-04-15T09:27:56;5.57;;;3.38;;
7829;SDS011;3960;51.86894000;5.39848000;2023-04-15T09:30:23;6.85;;;3.58;;
7829;SDS011;3960;51.86894000;5.39848000;2023-04-15T09:32:49;5.28;;;3.58;;
7829;SDS011;3960;51.86894000;5.39848000;2023-04-15T09:35:26;4.65;;;3.22;;
7829;SDS011;3960;51.86894000;5.39848000;2023-04-15T09:37:52;4.03;;;2.67;;
7829;SDS011;3960;51.86894000;5.39848000;2023-04-15T09:40:29;3.38;;;2.90;;
7829;SDS011;3960;51.86894000;5.39848000;2023-04-15T09:43:15;4.72;;;2.80;;
7829;SDS011;3960;51.86894000;5.39848000;2023-04-15T09:45:48;6.72;;;2.53;;
7829;SDS011;3960;51.86894000;5.39848000;2023-04-15T09:48:21;4.30;;;2.85;;
7829;SDS011;3960;51.86894000;5.39848000;2023-04-15T09:50:49;4.50;;;2.30;;
7829;SDS011;3960;51.86894000;5.39848000;2023-04-15T09:53:18;5.00;;;2.20;;
7829;SDS011;3960;51.86894000;5.39848000;2023-04-15T09:55:49;2.78;;;2.10;;
7829;SDS011;3960;51.86894000;5.39848000;2023-04-15T09:58:29;5.70;;;2.13;;
7829;SDS011;3960;51.86894000;5.39848000;2023-04-15T10:00:56;3.05;;;2.15;;
7829;SDS011;3960;51.86894000;5.39848000;2023-04-15T10:03:23;4.00;;;2.22;;
7829;SDS011;3960;51.86894000;5.39848000;2023-04-15T10:05:54;3.45;;;2.10;;
7829;SDS011;3960;51.86894000;5.39848000;2023-04-15T10:08:22;6.05;;;2.20;;
7829;SDS011;3960;51.86894000;5.39848000;2023-04-15T10:10:49;4.55;;;2.40;;
7829;SDS011;3960;51.86894000;5.39848000;2023-04-15T10:13:17;2.95;;;2.20;;
7829;SDS011;3960;51.86894000;5.39848000;2023-04-15T10:15:45;4.60;;;2.47;;
7829;SDS011;3960;51.86894000;5.39848000;2023-04-15T10:18:15;3.05;;;2.10;;
7829;SDS011;3960;51.86894000;5.39848000;2023-04-15T10:20:43;3.85;;;2.47;;
7829;SDS011;3960;51.86894000;5.39848000;2023-04-15T10:23:09;4.28;;;2.78;;
7829;SDS011;3960;51.86894000;5.39848000;2023-04-15T10:25:35;6.10;;;2.67;;
7829;SDS011;3960;51.86894000;5.39848000;2023-04-15T10:28:01;4.38;;;3.10;;
7829;SDS011;3960;51.86894000;5.39848000;2023-04-15T10:30:27;4.30;;;3.13;;
7829;SDS011;3960;51.86894000;5.39848000;2023-04-15T10:32:52;5.45;;;3.28;;
7829;SDS011;3960;51.86894000;5.39848000;2023-04-15T10:35:19;3.55;;;2.55;;
7829;SDS011;3960;51.86894000;5.39848000;2023-04-15T10:37:46;3.50;;;2.75;;
7829;SDS011;3960;51.86894000;5.39848000;2023-04-15T10:40:30;5.82;;;3.05;;
7829;SDS011;3960;51.86894000;5.39848000;2023-04-15T10:43:01;4.18;;;2.70;;
7829;SDS011;3960;51.86894000;5.39848000;2023-04-15T10:45:28;4.05;;;2.38;;
7829;SDS011;3960;51.86894000;5.39848000;2023-04-15T10:47:57;3.55;;;2.58;;
7829;SDS011;3960;51.86894000;5.39848000;2023-04-15T10:50:27;3.47;;;2.40;;
7829;SDS011;3960;51.86894000;5.39848000;2023-04-15T10:52:54;3.05;;;2.50;;
7829;SDS011;3960;51.86894000;5.39848000;2023-04-15T10:55:21;5.45;;;2.67;;
7829;SDS011;3960;51.86894000;5.39848000;2023-04-15T10:57:51;3.78;;;2.30;;
7829;SDS011;3960;51.86894000;5.39848000;2023-04-15T11:00:18;4.78;;;2.65;;
7829;SDS011;3960;51.86894000;5.39848000;2023-04-15T11:05:20;4.53;;;2.83;;
7829;SDS011;3960;51.86894000;5.39848000;2023-04-15T11:07:54;4.00;;;2.28;;
7829;SDS011;3960;51.86894000;5.39848000;2023-04-15T11:12:45;6.10;;;2.78;;
7829;SDS011;3960;51.86894000;5.39848000;2023-04-15T11:18:11;4.13;;;2.35;;
7829;SDS011;3960;51.86894000;5.39848000;2023-04-15T11:20:38;3.85;;;2.35;;
7829;SDS011;3960;51.86894000;5.39848000;2023-04-15T11:23:05;6.15;;;2.15;;
7829;SDS011;3960;51.86894000;5.39848000;2023-04-15T11:25:31;3.00;;;2.13;;
7829;SDS011;3960;51.86894000;5.39848000;2023-04-15T11:27:58;3.17;;;2.30;;
7829;SDS011;3960;51.86894000;5.39848000;2023-04-15T11:30:29;3.85;;;1.90;;
7829;SDS011;3960;51.86894000;5.39848000;2023-04-15T11:32:58;2.20;;;1.95;;
7829;SDS011;3960;51.86894000;5.39848000;2023-04-15T11:35:28;4.50;;;2.03;;
7829;SDS011;3960;51.86894000;5.39848000;2023-04-15T11:37:54;4.28;;;2.55;;
7829;SDS011;3960;51.86894000;5.39848000;2023-04-15T11:40:28;2.10;;;1.90;;
7829;SDS011;3960;51.86894000;5.39848000;2023-04-15T11:43:10;3.28;;;2.38;;
7829;SDS011;3960;51.86894000;5.39848000;2023-04-15T11:45:56;3.08;;;2.30;;
7829;SDS011;3960;51.86894000;5.39848000;2023-04-15T11:48:24;3.55;;;2.35;;
7829;SDS011;3960;51.86894000;5.39848000;2023-04-15T11:50:57;5.50;;;2.50;;
7829;SDS011;3960;51.86894000;5.39848000;2023-04-15T11:53:24;3.42;;;2.33;;
7829;SDS011;3960;51.86894000;5.39848000;2023-04-15T11:55:59;5.57;;;2.33;;
7829;SDS011;3960;51.86894000;5.39848000;2023-04-15T11:58:25;3.78;;;2.30;;
7829;SDS011;3960;51.86894000;5.39848000;2023-04-15T12:00:52;2.60;;;2.17;;
7829;SDS011;3960;51.86894000;5.39848000;2023-04-15T12:03:28;2.72;;;2.20;;
7829;SDS011;3960;51.86894000;5.39848000;2023-04-15T12:08:49;4.80;;;2.20;;
7829;SDS011;3960;51.86894000;5.39848000;2023-04-15T12:13:52;6.35;;;1.90;;
7829;SDS011;3960;51.86894000;5.39848000;2023-04-15T12:16:18;2.90;;;1.80;;
7829;SDS011;3960;51.86894000;5.39848000;2023-04-15T12:18:45;2.15;;;1.48;;
7829;SDS011;3960;51.86894000;5.39848000;2023-04-15T12:21:11;3.30;;;1.60;;
7829;SDS011;3960;51.86894000;5.39848000;2023-04-15T12:23:55;3.05;;;1.88;;
7829;SDS011;3960;51.86894000;5.39848000;2023-04-15T12:26:28;2.55;;;1.50;;
7829;SDS011;3960;51.86894000;5.39848000;2023-04-15T12:29:06;2.65;;;1.67;;
7829;SDS011;3960;51.86894000;5.39848000;2023-04-15T12:31:34;2.25;;;1.58;;
7829;SDS011;3960;51.86894000;5.39848000;2023-04-15T12:34:06;3.33;;;1.95;;
7829;SDS011;3960;51.86894000;5.39848000;2023-04-15T12:36:32;2.15;;;1.60;;
7829;SDS011;3960;51.86894000;5.39848000;2023-04-15T12:39:01;2.50;;;1.90;;
7829;SDS011;3960;51.86894000;5.39848000;2023-04-15T12:41:28;2.72;;;1.80;;
7829;SDS011;3960;51.86894000;5.39848000;2023-04-15T12:43:53;6.75;;;2.10;;
7829;SDS011;3960;51.86894000;5.39848000;2023-04-15T12:46:18;3.63;;;2.00;;
7829;SDS011;3960;51.86894000;5.39848000;2023-04-15T12:48:44;2.50;;;1.70;;
7829;SDS011;3960;51.86894000;5.39848000;2023-04-15T12:51:10;3.97;;;2.22;;
7829;SDS011;3960;51.86894000;5.39848000;2023-04-15T12:53:35;3.50;;;2.40;;
7829;SDS011;3960;51.86894000;5.39848000;2023-04-15T12:56:01;5.82;;;2.65;;
7829;SDS011;3960;51.86894000;5.39848000;2023-04-15T12:58:26;5.38;;;1.88;;
7829;SDS011;3960;51.86894000;5.39848000;2023-04-15T13:00:51;3.03;;;1.73;;
7829;SDS011;3960;51.86894000;5.39848000;2023-04-15T13:03:17;4.53;;;1.58;;
7829;SDS011;3960;51.86894000;5.39848000;2023-04-15T13:05:42;2.38;;;1.55;;
7829;SDS011;3960;51.86894000;5.39848000;2023-04-15T13:08:07;1.63;;;1.45;;
7829;SDS011;3960;51.86894000;5.39848000;2023-04-15T13:10:33;3.17;;;1.30;;
7829;SDS011;3960;51.86894000;5.39848000;2023-04-15T13:13:00;4.03;;;1.60;;
7829;SDS011;3960;51.86894000;5.39848000;2023-04-15T13:15:26;4.32;;;1.60;;
7829;SDS011;3960;51.86894000;5.39848000;2023-04-15T13:17:51;3.50;;;1.65;;
7829;SDS011;3960;51.86894000;5.39848000;2023-04-15T13:20:16;2.38;;;1.35;;
7829;SDS011;3960;51.86894000;5.39848000;2023-04-15T13:22:42;2.40;;;1.60;;
7829;SDS011;3960;51.86894000;5.39848000;2023-04-15T13:25:07;2.17;;;1.63;;
7829;SDS011;3960;51.86894000;5.39848000;2023-04-15T13:27:33;2.53;;;1.30;;
7829;SDS011;3960;51.86894000;5.39848000;2023-04-15T13:29:58;2.88;;;1.50;;
7829;SDS011;3960;51.86894000;5.39848000;2023-04-15T13:32:24;1.42;;;1.30;;
7829;SDS011;3960;51.86894000;5.39848000;2023-04-15T13:34:50;6.75;;;1.70;;
7829;SDS011;3960;51.86894000;5.39848000;2023-04-15T13:37:15;2.45;;;1.45;;
7829;SDS011;3960;51.86894000;5.39848000;2023-04-15T13:39:41;2.97;;;1.70;;
7829;SDS011;3960;51.86894000;5.39848000;2023-04-15T13:42:06;2.45;;;1.67;;
7829;SDS011;3960;51.86894000;5.39848000;2023-04-15T13:44:31;1.55;;;1.30;;
7829;SDS011;3960;51.86894000;5.39848000;2023-04-15T13:46:57;1.73;;;1.20;;
7829;SDS011;3960;51.86894000;5.39848000;2023-04-15T13:49:22;1.92;;;1.15;;
7829;SDS011;3960;51.86894000;5.39848000;2023-04-15T13:51:47;1.55;;;1.15;;
7829;SDS011;3960;51.86894000;5.39848000;2023-04-15T13:54:12;1.60;;;1.35;;